Terminal Aerodrome Forecast
Issued by NWS

Home | Current Version | Previous Version | Text Only | Print | Product List | Glossary On
Versions: 1 2 3 4 5 6 7 8 9 10 11 12 13
000
FTUS41 KBTV 211700
TAFRUT
TAF
KRUT 211725Z 2118/2218 14010KT P6SM VCSH SCT020 OVC040
      TEMPO 2118/2121 BKN020
     FM212100 14008KT P6SM VCTS BKN030CB
     FM220000 13006KT P6SM -SHRA OVC040
     FM220600 13006KT 4SM BR OVC020
     FM221300 14007KT P6SM VCSH BKN035
      AMD LTD TO CLD VIS AND WIND=

USA.gov is the U.S. government's official web portal to all federal, state and local government web resources and services.